sensor_id;sensor_type;location;lat;lon;timestamp;P1;durP1;ratioP1;P2;durP2;ratioP2
55633;SDS011;41504;53.162;6.788;2023-02-28T00:01:11;16.20;;;7.38;;
55633;SDS011;41504;53.162;6.788;2023-02-28T00:03:38;16.90;;;10.00;;
55633;SDS011;41504;53.162;6.788;2023-02-28T00:06:04;18.20;;;9.75;;
55633;SDS011;41504;53.162;6.788;2023-02-28T00:08:31;17.77;;;9.80;;
55633;SDS011;41504;53.162;6.788;2023-02-28T00:11:00;16.50;;;9.75;;
55633;SDS011;41504;53.162;6.788;2023-02-28T00:13:30;19.00;;;10.50;;
55633;SDS011;41504;53.162;6.788;2023-02-28T00:16:03;18.55;;;10.02;;
55633;SDS011;41504;53.162;6.788;2023-02-28T00:18:41;25.95;;;13.20;;
55633;SDS011;41504;53.162;6.788;2023-02-28T00:21:07;22.90;;;12.20;;
55633;SDS011;41504;53.162;6.788;2023-02-28T00:23:33;16.17;;;7.80;;
55633;SDS011;41504;53.162;6.788;2023-02-28T00:25:59;12.02;;;7.03;;
55633;SDS011;41504;53.162;6.788;2023-02-28T00:28:25;14.35;;;6.80;;
55633;SDS011;41504;53.162;6.788;2023-02-28T00:30:54;20.45;;;9.13;;
55633;SDS011;41504;53.162;6.788;2023-02-28T00:33:19;22.10;;;11.05;;
55633;SDS011;41504;53.162;6.788;2023-02-28T00:35:45;22.02;;;11.35;;
55633;SDS011;41504;53.162;6.788;2023-02-28T00:38:12;32.45;;;14.43;;
55633;SDS011;41504;53.162;6.788;2023-02-28T00:40:38;25.52;;;13.40;;
55633;SDS011;41504;53.162;6.788;2023-02-28T00:43:04;19.23;;;8.07;;
55633;SDS011;41504;53.162;6.788;2023-02-28T00:45:30;19.83;;;9.98;;
55633;SDS011;41504;53.162;6.788;2023-02-28T00:47:55;21.63;;;11.07;;
55633;SDS011;41504;53.162;6.788;2023-02-28T00:50:21;21.42;;;9.88;;
55633;SDS011;41504;53.162;6.788;2023-02-28T00:52:47;19.50;;;9.63;;
55633;SDS011;41504;53.162;6.788;2023-02-28T00:55:13;16.08;;;7.72;;
55633;SDS011;41504;53.162;6.788;2023-02-28T00:57:38;14.38;;;6.70;;
55633;SDS011;41504;53.162;6.788;2023-02-28T01:00:05;11.80;;;6.68;;
55633;SDS011;41504;53.162;6.788;2023-02-28T01:02:32;14.98;;;6.70;;
55633;SDS011;41504;53.162;6.788;2023-02-28T01:04:58;14.63;;;7.20;;
55633;SDS011;41504;53.162;6.788;2023-02-28T01:07:23;12.23;;;5.95;;
55633;SDS011;41504;53.162;6.788;2023-02-28T01:09:49;15.00;;;6.70;;
55633;SDS011;41504;53.162;6.788;2023-02-28T01:12:15;15.15;;;7.63;;
55633;SDS011;41504;53.162;6.788;2023-02-28T01:14:44;28.05;;;11.20;;
55633;SDS011;41504;53.162;6.788;2023-02-28T01:17:10;26.45;;;10.85;;
55633;SDS011;41504;53.162;6.788;2023-02-28T01:19:36;18.20;;;8.70;;
55633;SDS011;41504;53.162;6.788;2023-02-28T01:22:05;19.08;;;8.32;;
55633;SDS011;41504;53.162;6.788;2023-02-28T01:24:31;19.48;;;7.95;;
55633;SDS011;41504;53.162;6.788;2023-02-28T01:26:57;14.65;;;7.13;;
55633;SDS011;41504;53.162;6.788;2023-02-28T01:29:23;14.50;;;7.13;;
55633;SDS011;41504;53.162;6.788;2023-02-28T01:31:49;14.65;;;6.72;;
55633;SDS011;41504;53.162;6.788;2023-02-28T01:34:14;12.75;;;6.90;;
55633;SDS011;41504;53.162;6.788;2023-02-28T01:36:40;16.27;;;7.20;;
55633;SDS011;41504;53.162;6.788;2023-02-28T01:39:06;15.90;;;6.80;;
55633;SDS011;41504;53.162;6.788;2023-02-28T01:41:32;15.10;;;7.43;;
55633;SDS011;41504;53.162;6.788;2023-02-28T01:44:06;14.93;;;7.18;;
55633;SDS011;41504;53.162;6.788;2023-02-28T01:46:52;16.60;;;7.32;;
55633;SDS011;41504;53.162;6.788;2023-02-28T01:49:18;14.80;;;7.20;;
55633;SDS011;41504;53.162;6.788;2023-02-28T01:51:51;19.38;;;8.20;;
55633;SDS011;41504;53.162;6.788;2023-02-28T01:54:25;13.38;;;6.00;;
55633;SDS011;41504;53.162;6.788;2023-02-28T01:56:56;14.00;;;6.88;;
55633;SDS011;41504;53.162;6.788;2023-02-28T01:59:33;14.70;;;6.30;;
55633;SDS011;41504;53.162;6.788;2023-02-28T02:02:03;11.63;;;5.78;;
55633;SDS011;41504;53.162;6.788;2023-02-28T02:04:32;11.48;;;5.68;;
55633;SDS011;41504;53.162;6.788;2023-02-28T02:07:03;9.75;;;5.68;;
55633;SDS011;41504;53.162;6.788;2023-02-28T02:09:29;10.90;;;5.10;;
55633;SDS011;41504;53.162;6.788;2023-02-28T02:11:55;9.60;;;5.82;;
55633;SDS011;41504;53.162;6.788;2023-02-28T02:14:32;10.05;;;5.20;;
55633;SDS011;41504;53.162;6.788;2023-02-28T02:22:43;11.48;;;5.90;;
55633;SDS011;41504;53.162;6.788;2023-02-28T02:36:40;14.85;;;7.32;;
55633;SDS011;41504;53.162;6.788;2023-02-28T02:42:09;14.82;;;7.43;;
55633;SDS011;41504;53.162;6.788;2023-02-28T02:44:42;16.23;;;7.43;;
55633;SDS011;41504;53.162;6.788;2023-02-28T02:47:18;13.98;;;7.18;;
55633;SDS011;41504;53.162;6.788;2023-02-28T02:49:48;14.27;;;6.43;;
55633;SDS011;41504;53.162;6.788;2023-02-28T02:52:20;13.82;;;6.60;;
55633;SDS011;41504;53.162;6.788;2023-02-28T02:54:50;11.65;;;5.88;;
55633;SDS011;41504;53.162;6.788;2023-02-28T02:57:40;11.77;;;5.85;;
55633;SDS011;41504;53.162;6.788;2023-02-28T03:00:17;14.13;;;6.82;;
55633;SDS011;41504;53.162;6.788;2023-02-28T03:02:47;13.20;;;6.90;;
55633;SDS011;41504;53.162;6.788;2023-02-28T03:05:24;10.10;;;6.00;;
55633;SDS011;41504;53.162;6.788;2023-02-28T03:07:53;11.63;;;6.18;;
55633;SDS011;41504;53.162;6.788;2023-02-28T03:10:30;11.73;;;6.65;;
55633;SDS011;41504;53.162;6.788;2023-02-28T03:13:12;11.27;;;6.20;;
55633;SDS011;41504;53.162;6.788;2023-02-28T03:24:37;13.93;;;7.00;;
55633;SDS011;41504;53.162;6.788;2023-02-28T03:27:11;11.88;;;6.90;;
55633;SDS011;41504;53.162;6.788;2023-02-28T03:29:52;14.05;;;6.82;;
55633;SDS011;41504;53.162;6.788;2023-02-28T03:32:26;11.45;;;6.53;;
55633;SDS011;41504;53.162;6.788;2023-02-28T03:35:01;10.60;;;6.32;;
55633;SDS011;41504;53.162;6.788;2023-02-28T03:37:37;11.13;;;6.60;;
55633;SDS011;41504;53.162;6.788;2023-02-28T03:40:10;9.57;;;6.50;;
55633;SDS011;41504;53.162;6.788;2023-02-28T03:42:41;10.15;;;6.45;;
55633;SDS011;41504;53.162;6.788;2023-02-28T03:45:12;11.95;;;6.88;;
55633;SDS011;41504;53.162;6.788;2023-02-28T03:48:35;10.93;;;6.15;;
55633;SDS011;41504;53.162;6.788;2023-02-28T03:50:56;10.82;;;5.70;;
55633;SDS011;41504;53.162;6.788;2023-02-28T03:53:37;9.32;;;5.38;;
55633;SDS011;41504;53.162;6.788;2023-02-28T03:56:31;7.97;;;5.50;;
55633;SDS011;41504;53.162;6.788;2023-02-28T04:01:40;8.48;;;5.25;;
55633;SDS011;41504;53.162;6.788;2023-02-28T04:04:08;9.95;;;5.45;;
55633;SDS011;41504;53.162;6.788;2023-02-28T04:06:34;11.60;;;5.78;;
55633;SDS011;41504;53.162;6.788;2023-02-28T04:09:01;10.10;;;6.00;;
55633;SDS011;41504;53.162;6.788;2023-02-28T04:14:05;9.85;;;5.88;;
55633;SDS011;41504;53.162;6.788;2023-02-28T04:16:33;10.85;;;5.97;;
55633;SDS011;41504;53.162;6.788;2023-02-28T04:19:03;9.52;;;6.32;;
55633;SDS011;41504;53.162;6.788;2023-02-28T04:21:31;10.45;;;5.75;;
55633;SDS011;41504;53.162;6.788;2023-02-28T04:23:58;10.88;;;6.40;;
55633;SDS011;41504;53.162;6.788;2023-02-28T04:26:31;12.25;;;6.20;;
55633;SDS011;41504;53.162;6.788;2023-02-28T04:28:59;11.73;;;6.20;;
55633;SDS011;41504;53.162;6.788;2023-02-28T04:31:25;11.15;;;6.55;;
55633;SDS011;41504;53.162;6.788;2023-02-28T04:33:51;12.43;;;6.93;;
55633;SDS011;41504;53.162;6.788;2023-02-28T04:36:17;11.95;;;6.70;;
55633;SDS011;41504;53.162;6.788;2023-02-28T04:38:44;11.68;;;6.57;;
55633;SDS011;41504;53.162;6.788;2023-02-28T04:41:11;11.05;;;6.25;;
55633;SDS011;41504;53.162;6.788;2023-02-28T04:43:37;10.63;;;6.40;;
55633;SDS011;41504;53.162;6.788;2023-02-28T04:46:03;11.32;;;6.68;;
55633;SDS011;41504;53.162;6.788;2023-02-28T04:48:31;12.43;;;6.97;;
55633;SDS011;41504;53.162;6.788;2023-02-28T04:51:00;11.52;;;7.10;;
55633;SDS011;41504;53.162;6.788;2023-02-28T04:53:30;11.80;;;6.95;;
55633;SDS011;41504;53.162;6.788;2023-02-28T04:55:56;12.02;;;7.60;;
55633;SDS011;41504;53.162;6.788;2023-02-28T04:58:23;12.95;;;6.97;;
55633;SDS011;41504;53.162;6.788;2023-02-28T05:00:50;13.57;;;7.35;;
55633;SDS011;41504;53.162;6.788;2023-02-28T05:03:17;13.15;;;7.38;;
55633;SDS011;41504;53.162;6.788;2023-02-28T05:05:42;13.20;;;7.90;;
55633;SDS011;41504;53.162;6.788;2023-02-28T05:08:08;12.02;;;7.30;;
55633;SDS011;41504;53.162;6.788;2023-02-28T05:10:35;13.15;;;7.35;;
55633;SDS011;41504;53.162;6.788;2023-02-28T05:13:01;14.20;;;8.23;;
55633;SDS011;41504;53.162;6.788;2023-02-28T05:15:26;11.70;;;7.70;;
55633;SDS011;41504;53.162;6.788;2023-02-28T05:17:52;14.32;;;8.05;;
55633;SDS011;41504;53.162;6.788;2023-02-28T05:20:18;13.23;;;7.97;;
55633;SDS011;41504;53.162;6.788;2023-02-28T05:22:44;14.90;;;7.85;;
55633;SDS011;41504;53.162;6.788;2023-02-28T05:25:10;13.98;;;8.05;;
55633;SDS011;41504;53.162;6.788;2023-02-28T05:27:42;13.02;;;8.00;;
55633;SDS011;41504;53.162;6.788;2023-02-28T05:30:08;12.40;;;7.65;;
55633;SDS011;41504;53.162;6.788;2023-02-28T05:32:36;14.82;;;7.63;;
55633;SDS011;41504;53.162;6.788;2023-02-28T05:35:03;12.38;;;7.80;;
55633;SDS011;41504;53.162;6.788;2023-02-28T05:37:29;13.35;;;7.70;;
55633;SDS011;41504;53.162;6.788;2023-02-28T05:39:55;14.95;;;8.45;;
55633;SDS011;41504;53.162;6.788;2023-02-28T05:42:20;13.50;;;8.35;;
55633;SDS011;41504;53.162;6.788;2023-02-28T05:44:49;14.10;;;8.57;;
55633;SDS011;41504;53.162;6.788;2023-02-28T05:47:15;12.45;;;8.13;;
55633;SDS011;41504;53.162;6.788;2023-02-28T05:49:42;13.48;;;8.60;;
55633;SDS011;41504;53.162;6.788;2023-02-28T05:52:07;15.10;;;9.10;;
55633;SDS011;41504;53.162;6.788;2023-02-28T05:54:33;13.68;;;8.55;;
55633;SDS011;41504;53.162;6.788;2023-02-28T05:56:59;13.57;;;8.63;;
55633;SDS011;41504;53.162;6.788;2023-02-28T05:59:24;14.05;;;8.82;;
55633;SDS011;41504;53.162;6.788;2023-02-28T06:01:50;14.85;;;8.43;;
55633;SDS011;41504;53.162;6.788;2023-02-28T06:04:19;13.80;;;8.73;;
55633;SDS011;41504;53.162;6.788;2023-02-28T06:06:46;13.68;;;8.90;;
55633;SDS011;41504;53.162;6.788;2023-02-28T06:09:15;15.70;;;9.20;;
55633;SDS011;41504;53.162;6.788;2023-02-28T06:11:42;15.93;;;8.73;;
55633;SDS011;41504;53.162;6.788;2023-02-28T06:14:10;13.48;;;8.80;;
55633;SDS011;41504;53.162;6.788;2023-02-28T06:16:42;16.48;;;9.68;;
55633;SDS011;41504;53.162;6.788;2023-02-28T06:19:08;14.95;;;10.02;;
55633;SDS011;41504;53.162;6.788;2023-02-28T06:21:35;17.23;;;10.27;;
55633;SDS011;41504;53.162;6.788;2023-02-28T06:24:01;17.45;;;10.02;;
55633;SDS011;41504;53.162;6.788;2023-02-28T06:26:31;13.68;;;9.68;;
55633;SDS011;41504;53.162;6.788;2023-02-28T06:28:57;14.70;;;9.20;;
55633;SDS011;41504;53.162;6.788;2023-02-28T06:31:23;16.23;;;10.10;;
55633;SDS011;41504;53.162;6.788;2023-02-28T06:33:50;17.67;;;9.95;;
55633;SDS011;41504;53.162;6.788;2023-02-28T06:36:18;14.27;;;9.05;;
55633;SDS011;41504;53.162;6.788;2023-02-28T06:38:44;15.27;;;9.32;;
55633;SDS011;41504;53.162;6.788;2023-02-28T06:41:10;16.30;;;10.15;;
55633;SDS011;41504;53.162;6.788;2023-02-28T06:43:38;17.40;;;10.57;;
55633;SDS011;41504;53.162;6.788;2023-02-28T06:46:06;15.70;;;10.13;;
55633;SDS011;41504;53.162;6.788;2023-02-28T06:48:33;17.08;;;10.15;;
55633;SDS011;41504;53.162;6.788;2023-02-28T06:51:32;16.67;;;10.63;;
55633;SDS011;41504;53.162;6.788;2023-02-28T06:53:52;14.93;;;9.13;;
55633;SDS011;41504;53.162;6.788;2023-02-28T06:56:18;16.58;;;10.13;;
55633;SDS011;41504;53.162;6.788;2023-02-28T06:58:46;17.42;;;10.57;;
55633;SDS011;41504;53.162;6.788;2023-02-28T07:01:13;17.42;;;10.90;;
55633;SDS011;41504;53.162;6.788;2023-02-28T07:03:39;18.30;;;10.98;;
55633;SDS011;41504;53.162;6.788;2023-02-28T07:06:05;16.13;;;10.45;;
55633;SDS011;41504;53.162;6.788;2023-02-28T07:08:31;19.05;;;11.50;;
55633;SDS011;41504;53.162;6.788;2023-02-28T07:10:57;16.25;;;10.20;;
55633;SDS011;41504;53.162;6.788;2023-02-28T07:13:23;15.35;;;10.48;;
55633;SDS011;41504;53.162;6.788;2023-02-28T07:16:00;18.50;;;11.45;;
55633;SDS011;41504;53.162;6.788;2023-02-28T07:18:27;16.40;;;10.63;;
55633;SDS011;41504;53.162;6.788;2023-02-28T07:20:53;14.32;;;9.98;;
55633;SDS011;41504;53.162;6.788;2023-02-28T07:23:20;17.08;;;11.13;;
55633;SDS011;41504;53.162;6.788;2023-02-28T07:25:46;18.00;;;11.18;;
55633;SDS011;41504;53.162;6.788;2023-02-28T07:28:12;17.13;;;11.02;;
55633;SDS011;41504;53.162;6.788;2023-02-28T07:30:38;21.13;;;10.25;;
55633;SDS011;41504;53.162;6.788;2023-02-28T07:33:04;15.98;;;10.32;;
55633;SDS011;41504;53.162;6.788;2023-02-28T07:35:30;17.73;;;10.57;;
55633;SDS011;41504;53.162;6.788;2023-02-28T07:37:59;15.65;;;9.88;;
55633;SDS011;41504;53.162;6.788;2023-02-28T07:40:26;19.73;;;10.88;;
55633;SDS011;41504;53.162;6.788;2023-02-28T07:42:52;20.02;;;11.43;;
55633;SDS011;41504;53.162;6.788;2023-02-28T07:45:17;15.90;;;9.75;;
55633;SDS011;41504;53.162;6.788;2023-02-28T07:47:44;18.75;;;11.13;;
55633;SDS011;41504;53.162;6.788;2023-02-28T07:50:11;17.80;;;10.43;;
55633;SDS011;41504;53.162;6.788;2023-02-28T07:52:39;21.17;;;11.07;;
55633;SDS011;41504;53.162;6.788;2023-02-28T07:55:05;17.02;;;10.68;;
55633;SDS011;41504;53.162;6.788;2023-02-28T07:57:32;17.27;;;10.50;;
55633;SDS011;41504;53.162;6.788;2023-02-28T07:59:58;15.98;;;10.23;;
55633;SDS011;41504;53.162;6.788;2023-02-28T08:02:24;17.25;;;10.32;;
55633;SDS011;41504;53.162;6.788;2023-02-28T08:04:50;19.63;;;10.73;;
55633;SDS011;41504;53.162;6.788;2023-02-28T08:07:16;16.50;;;10.15;;
55633;SDS011;41504;53.162;6.788;2023-02-28T08:09:42;17.25;;;10.55;;
55633;SDS011;41504;53.162;6.788;2023-02-28T08:12:09;19.35;;;10.77;;
55633;SDS011;41504;53.162;6.788;2023-02-28T08:14:36;16.48;;;10.85;;
55633;SDS011;41504;53.162;6.788;2023-02-28T08:17:02;16.27;;;10.48;;
55633;SDS011;41504;53.162;6.788;2023-02-28T08:19:29;15.98;;;9.60;;
55633;SDS011;41504;53.162;6.788;2023-02-28T08:21:55;18.20;;;10.40;;
55633;SDS011;41504;53.162;6.788;2023-02-28T08:24:21;17.92;;;10.52;;
55633;SDS011;41504;53.162;6.788;2023-02-28T08:26:46;16.58;;;9.93;;
55633;SDS011;41504;53.162;6.788;2023-02-28T08:29:12;15.55;;;10.40;;
55633;SDS011;41504;53.162;6.788;2023-02-28T08:31:38;17.88;;;10.52;;
55633;SDS011;41504;53.162;6.788;2023-02-28T08:34:05;17.73;;;10.40;;
55633;SDS011;41504;53.162;6.788;2023-02-28T08:36:34;18.85;;;10.63;;
55633;SDS011;41504;53.162;6.788;2023-02-28T08:39:00;20.90;;;10.80;;
55633;SDS011;41504;53.162;6.788;2023-02-28T08:41:26;19.13;;;11.18;;
55633;SDS011;41504;53.162;6.788;2023-02-28T08:43:52;16.48;;;10.93;;
55633;SDS011;41504;53.162;6.788;2023-02-28T08:46:18;17.42;;;11.30;;
55633;SDS011;41504;53.162;6.788;2023-02-28T08:48:45;17.77;;;11.00;;
55633;SDS011;41504;53.162;6.788;2023-02-28T08:51:15;19.13;;;11.75;;
55633;SDS011;41504;53.162;6.788;2023-02-28T08:53:47;18.85;;;10.73;;
55633;SDS011;41504;53.162;6.788;2023-02-28T08:56:14;19.00;;;11.68;;
55633;SDS011;41504;53.162;6.788;2023-02-28T08:58:44;21.25;;;12.32;;
55633;SDS011;41504;53.162;6.788;2023-02-28T09:01:13;19.48;;;11.10;;
55633;SDS011;41504;53.162;6.788;2023-02-28T09:03:40;18.02;;;12.07;;
55633;SDS011;41504;53.162;6.788;2023-02-28T09:06:07;18.65;;;11.10;;
55633;SDS011;41504;53.162;6.788;2023-02-28T09:08:36;19.75;;;11.45;;
55633;SDS011;41504;53.162;6.788;2023-02-28T09:11:02;20.92;;;11.55;;
55633;SDS011;41504;53.162;6.788;2023-02-28T09:13:29;19.42;;;11.90;;
55633;SDS011;41504;53.162;6.788;2023-02-28T09:15:57;17.52;;;11.57;;
55633;SDS011;41504;53.162;6.788;2023-02-28T09:18:23;20.17;;;11.38;;
55633;SDS011;41504;53.162;6.788;2023-02-28T09:20:49;17.83;;;10.82;;
55633;SDS011;41504;53.162;6.788;2023-02-28T09:23:15;15.77;;;10.35;;
55633;SDS011;41504;53.162;6.788;2023-02-28T09:25:48;16.17;;;10.80;;
55633;SDS011;41504;53.162;6.788;2023-02-28T09:28:16;17.10;;;11.00;;
55633;SDS011;41504;53.162;6.788;2023-02-28T09:30:42;19.27;;;10.45;;
55633;SDS011;41504;53.162;6.788;2023-02-28T09:33:10;19.23;;;10.80;;
55633;SDS011;41504;53.162;6.788;2023-02-28T09:35:36;20.90;;;11.90;;
55633;SDS011;41504;53.162;6.788;2023-02-28T09:38:02;16.60;;;11.07;;
55633;SDS011;41504;53.162;6.788;2023-02-28T09:40:29;16.92;;;10.85;;
55633;SDS011;41504;53.162;6.788;2023-02-28T09:42:56;18.20;;;11.80;;
55633;SDS011;41504;53.162;6.788;2023-02-28T09:45:26;18.27;;;10.88;;
55633;SDS011;41504;53.162;6.788;2023-02-28T09:48:03;19.52;;;11.65;;
55633;SDS011;41504;53.162;6.788;2023-02-28T09:50:40;19.00;;;11.60;;
55633;SDS011;41504;53.162;6.788;2023-02-28T09:53:16;17.17;;;11.60;;
55633;SDS011;41504;53.162;6.788;2023-02-28T09:55:51;17.77;;;11.18;;
55633;SDS011;41504;53.162;6.788;2023-02-28T09:58:26;16.48;;;10.10;;
55633;SDS011;41504;53.162;6.788;2023-02-28T10:01:07;17.73;;;11.18;;
55633;SDS011;41504;53.162;6.788;2023-02-28T10:03:59;21.65;;;13.27;;
55633;SDS011;41504;53.162;6.788;2023-02-28T10:06:36;15.15;;;10.40;;
55633;SDS011;41504;53.162;6.788;2023-02-28T10:09:25;19.33;;;10.50;;
55633;SDS011;41504;53.162;6.788;2023-02-28T10:11:56;17.50;;;10.50;;
55633;SDS011;41504;53.162;6.788;2023-02-28T10:14:28;18.52;;;10.23;;
55633;SDS011;41504;53.162;6.788;2023-02-28T10:17:12;16.15;;;9.88;;
55633;SDS011;41504;53.162;6.788;2023-02-28T10:22:19;12.77;;;7.93;;
55633;SDS011;41504;53.162;6.788;2023-02-28T10:24:50;13.68;;;8.57;;
55633;SDS011;41504;53.162;6.788;2023-02-28T10:27:31;14.73;;;8.73;;
55633;SDS011;41504;53.162;6.788;2023-02-28T10:29:58;13.73;;;7.78;;
55633;SDS011;41504;53.162;6.788;2023-02-28T10:32:26;15.57;;;8.77;;
55633;SDS011;41504;53.162;6.788;2023-02-28T10:35:15;12.65;;;7.95;;
55633;SDS011;41504;53.162;6.788;2023-02-28T10:37:46;13.27;;;8.20;;
55633;SDS011;41504;53.162;6.788;2023-02-28T10:40:25;13.10;;;7.93;;
55633;SDS011;41504;53.162;6.788;2023-02-28T10:42:58;16.05;;;8.32;;
55633;SDS011;41504;53.162;6.788;2023-02-28T10:45:28;15.05;;;8.57;;
55633;SDS011;41504;53.162;6.788;2023-02-28T10:55:55;11.27;;;7.50;;
55633;SDS011;41504;53.162;6.788;2023-02-28T10:58:57;14.27;;;7.95;;
55633;SDS011;41504;53.162;6.788;2023-02-28T11:03:55;12.00;;;7.20;;
55633;SDS011;41504;53.162;6.788;2023-02-28T11:06:32;11.55;;;7.43;;
55633;SDS011;41504;53.162;6.788;2023-02-28T11:09:00;13.55;;;7.88;;
55633;SDS011;41504;53.162;6.788;2023-02-28T11:11:29;11.63;;;7.35;;
55633;SDS011;41504;53.162;6.788;2023-02-28T11:14:14;12.48;;;6.88;;
55633;SDS011;41504;53.162;6.788;2023-02-28T11:16:49;12.10;;;7.57;;
55633;SDS011;41504;53.162;6.788;2023-02-28T11:19:20;12.95;;;7.18;;
55633;SDS011;41504;53.162;6.788;2023-02-28T11:22:00;13.90;;;7.80;;
55633;SDS011;41504;53.162;6.788;2023-02-28T11:27:05;12.00;;;7.75;;
55633;SDS011;41504;53.162;6.788;2023-02-28T11:29:32;14.07;;;8.13;;
55633;SDS011;41504;53.162;6.788;2023-02-28T11:32:07;12.15;;;7.95;;
55633;SDS011;41504;53.162;6.788;2023-02-28T11:34:46;13.68;;;7.78;;
55633;SDS011;41504;53.162;6.788;2023-02-28T11:37:24;13.38;;;7.80;;
55633;SDS011;41504;53.162;6.788;2023-02-28T11:39:53;12.30;;;7.18;;
55633;SDS011;41504;53.162;6.788;2023-02-28T11:42:24;12.43;;;7.65;;
55633;SDS011;41504;53.162;6.788;2023-02-28T11:52:53;12.00;;;7.13;;
55633;SDS011;41504;53.162;6.788;2023-02-28T12:06:28;11.43;;;7.05;;
55633;SDS011;41504;53.162;6.788;2023-02-28T12:15:04;10.65;;;6.93;;
55633;SDS011;41504;53.162;6.788;2023-02-28T12:17:59;10.75;;;6.85;;
55633;SDS011;41504;53.162;6.788;2023-02-28T12:28:25;9.55;;;6.45;;
55633;SDS011;41504;53.162;6.788;2023-02-28T12:30:58;11.35;;;6.82;;
55633;SDS011;41504;53.162;6.788;2023-02-28T12:33:40;10.30;;;6.65;;
55633;SDS011;41504;53.162;6.788;2023-02-28T12:36:10;12.77;;;7.03;;
55633;SDS011;41504;53.162;6.788;2023-02-28T12:38:41;12.15;;;6.97;;
55633;SDS011;41504;53.162;6.788;2023-02-28T12:41:15;10.93;;;6.60;;
55633;SDS011;41504;53.162;6.788;2023-02-28T12:43:46;13.60;;;6.85;;
55633;SDS011;41504;53.162;6.788;2023-02-28T12:46:24;11.85;;;6.60;;
55633;SDS011;41504;53.162;6.788;2023-02-28T12:48:57;10.98;;;6.38;;
55633;SDS011;41504;53.162;6.788;2023-02-28T12:51:27;10.45;;;6.35;;
55633;SDS011;41504;53.162;6.788;2023-02-28T12:54:14;9.50;;;6.35;;
55633;SDS011;41504;53.162;6.788;2023-02-28T12:59:55;10.65;;;6.72;;
55633;SDS011;41504;53.162;6.788;2023-02-28T13:05:19;10.48;;;5.40;;
55633;SDS011;41504;53.162;6.788;2023-02-28T13:10:39;9.32;;;5.43;;
55633;SDS011;41504;53.162;6.788;2023-02-28T13:13:16;8.43;;;5.40;;
55633;SDS011;41504;53.162;6.788;2023-02-28T13:18:46;10.40;;;6.15;;
55633;SDS011;41504;53.162;6.788;2023-02-28T13:21:30;11.32;;;6.70;;
55633;SDS011;41504;53.162;6.788;2023-02-28T13:24:07;11.45;;;5.90;;
55633;SDS011;41504;53.162;6.788;2023-02-28T13:50:14;9.82;;;6.20;;
55633;SDS011;41504;53.162;6.788;2023-02-28T13:56:27;12.48;;;7.05;;
55633;SDS011;41504;53.162;6.788;2023-02-28T14:06:32;9.55;;;5.60;;
55633;SDS011;41504;53.162;6.788;2023-02-28T14:12:50;8.50;;;5.55;;
55633;SDS011;41504;53.162;6.788;2023-02-28T14:15:04;12.88;;;6.25;;
55633;SDS011;41504;53.162;6.788;2023-02-28T14:17:59;11.18;;;6.35;;
55633;SDS011;41504;53.162;6.788;2023-02-28T14:20:29;9.63;;;6.35;;
55633;SDS011;41504;53.162;6.788;2023-02-28T14:31:16;10.07;;;6.90;;
55633;SDS011;41504;53.162;6.788;2023-02-28T14:34:05;11.80;;;6.60;;
55633;SDS011;41504;53.162;6.788;2023-02-28T14:37:00;9.93;;;6.68;;
55633;SDS011;41504;53.162;6.788;2023-02-28T14:39:28;9.73;;;6.25;;
55633;SDS011;41504;53.162;6.788;2023-02-28T14:42:26;12.15;;;6.70;;
55633;SDS011;41504;53.162;6.788;2023-02-28T14:44:55;9.77;;;5.72;;
55633;SDS011;41504;53.162;6.788;2023-02-28T14:47:21;12.07;;;6.70;;
55633;SDS011;41504;53.162;6.788;2023-02-28T14:49:53;11.73;;;6.88;;
55633;SDS011;41504;53.162;6.788;2023-02-28T14:52:24;12.45;;;6.93;;
55633;SDS011;41504;53.162;6.788;2023-02-28T14:55:03;12.50;;;6.72;;
55633;SDS011;41504;53.162;6.788;2023-02-28T14:57:34;12.13;;;6.63;;
55633;SDS011;41504;53.162;6.788;2023-02-28T15:00:28;12.18;;;6.25;;
55633;SDS011;41504;53.162;6.788;2023-02-28T15:02:56;10.40;;;6.45;;
55633;SDS011;41504;53.162;6.788;2023-02-28T15:10:35;9.05;;;5.95;;
55633;SDS011;41504;53.162;6.788;2023-02-28T15:21:06;12.15;;;6.30;;
55633;SDS011;41504;53.162;6.788;2023-02-28T15:23:44;12.13;;;5.88;;
55633;SDS011;41504;53.162;6.788;2023-02-28T15:26:19;10.10;;;6.35;;
55633;SDS011;41504;53.162;6.788;2023-02-28T15:28:49;10.13;;;6.40;;
55633;SDS011;41504;53.162;6.788;2023-02-28T15:31:27;11.95;;;6.30;;
55633;SDS011;41504;53.162;6.788;2023-02-28T15:34:02;9.10;;;5.78;;
55633;SDS011;41504;53.162;6.788;2023-02-28T15:36:30;12.13;;;6.03;;
55633;SDS011;41504;53.162;6.788;2023-02-28T15:38:58;11.05;;;6.65;;
55633;SDS011;41504;53.162;6.788;2023-02-28T15:41:29;9.15;;;6.07;;
55633;SDS011;41504;53.162;6.788;2023-02-28T15:46:57;9.98;;;5.90;;
55633;SDS011;41504;53.162;6.788;2023-02-28T15:49:24;8.35;;;5.72;;
55633;SDS011;41504;53.162;6.788;2023-02-28T15:51:51;10.25;;;6.00;;
55633;SDS011;41504;53.162;6.788;2023-02-28T15:54:23;8.90;;;6.18;;
55633;SDS011;41504;53.162;6.788;2023-02-28T15:56:53;8.18;;;5.90;;
55633;SDS011;41504;53.162;6.788;2023-02-28T15:59:26;9.32;;;6.05;;
55633;SDS011;41504;53.162;6.788;2023-02-28T16:02:11;9.50;;;6.38;;
55633;SDS011;41504;53.162;6.788;2023-02-28T16:04:56;8.70;;;5.70;;
55633;SDS011;41504;53.162;6.788;2023-02-28T16:07:28;9.10;;;5.90;;
55633;SDS011;41504;53.162;6.788;2023-02-28T16:09:54;10.40;;;6.10;;
55633;SDS011;41504;53.162;6.788;2023-02-28T16:12:20;10.32;;;5.78;;
55633;SDS011;41504;53.162;6.788;2023-02-28T16:14:55;9.57;;;6.13;;
55633;SDS011;41504;53.162;6.788;2023-02-28T16:17:26;9.10;;;5.85;;
55633;SDS011;41504;53.162;6.788;2023-02-28T16:19:54;7.88;;;5.82;;
55633;SDS011;41504;53.162;6.788;2023-02-28T16:22:20;7.95;;;5.60;;
55633;SDS011;41504;53.162;6.788;2023-02-28T16:24:52;8.40;;;5.82;;
55633;SDS011;41504;53.162;6.788;2023-02-28T16:29:45;12.40;;;7.05;;
55633;SDS011;41504;53.162;6.788;2023-02-28T16:32:13;12.13;;;7.90;;
55633;SDS011;41504;53.162;6.788;2023-02-28T16:34:41;12.60;;;8.55;;
55633;SDS011;41504;53.162;6.788;2023-02-28T16:37:15;13.88;;;8.45;;
55633;SDS011;41504;53.162;6.788;2023-02-28T16:39:43;15.63;;;8.80;;
55633;SDS011;41504;53.162;6.788;2023-02-28T16:42:16;13.98;;;8.38;;
55633;SDS011;41504;53.162;6.788;2023-02-28T16:44:48;11.68;;;8.82;;
55633;SDS011;41504;53.162;6.788;2023-02-28T16:47:14;13.70;;;9.07;;
55633;SDS011;41504;53.162;6.788;2023-02-28T16:49:40;14.05;;;9.30;;
55633;SDS011;41504;53.162;6.788;2023-02-28T16:52:08;14.50;;;9.23;;
55633;SDS011;41504;53.162;6.788;2023-02-28T16:54:34;12.98;;;8.80;;
55633;SDS011;41504;53.162;6.788;2023-02-28T16:57:00;13.35;;;8.93;;
55633;SDS011;41504;53.162;6.788;2023-02-28T16:59:27;14.73;;;9.35;;
55633;SDS011;41504;53.162;6.788;2023-02-28T17:01:54;12.98;;;9.77;;
55633;SDS011;41504;53.162;6.788;2023-02-28T17:04:22;15.23;;;9.48;;
55633;SDS011;41504;53.162;6.788;2023-02-28T17:06:52;14.02;;;9.60;;
55633;SDS011;41504;53.162;6.788;2023-02-28T17:09:19;15.43;;;10.38;;
55633;SDS011;41504;53.162;6.788;2023-02-28T17:11:46;13.43;;;9.95;;
55633;SDS011;41504;53.162;6.788;2023-02-28T17:14:12;14.90;;;10.10;;
55633;SDS011;41504;53.162;6.788;2023-02-28T17:16:38;16.60;;;10.75;;
55633;SDS011;41504;53.162;6.788;2023-02-28T17:19:05;16.92;;;11.40;;
55633;SDS011;41504;53.162;6.788;2023-02-28T17:21:32;14.55;;;11.18;;
55633;SDS011;41504;53.162;6.788;2023-02-28T17:23:59;16.48;;;11.13;;
55633;SDS011;41504;53.162;6.788;2023-02-28T17:26:25;15.02;;;11.35;;
55633;SDS011;41504;53.162;6.788;2023-02-28T17:28:52;16.40;;;11.82;;